createdAt,value
2019-03-23T00:01:12.314Z,48.90
2019-03-23T00:03:45.927Z,47.80
2019-03-23T00:06:30.190Z,48.90
2019-03-23T00:08:54.746Z,49.17
2019-03-23T00:11:28.292Z,48.27
2019-03-23T00:14:01.872Z,49.00
2019-03-23T00:16:35.486Z,51.10
2019-03-23T00:19:09.047Z,51.40
2019-03-23T00:21:42.674Z,47.53
2019-03-23T00:24:16.249Z,46.07
2019-03-23T00:26:49.872Z,48.50
2019-03-23T00:29:23.442Z,50.20
2019-03-23T00:31:57.150Z,47.37
2019-03-23T00:34:30.677Z,49.60
2019-03-23T00:37:04.329Z,49.73
2019-03-23T00:39:37.941Z,48.17
2019-03-23T00:42:11.578Z,46.60
2019-03-23T00:44:45.261Z,50.27
2019-03-23T00:47:18.814Z,49.50
2019-03-23T00:49:52.306Z,50.30
2019-03-23T00:52:25.837Z,48.90
2019-03-23T00:54:59.348Z,48.93
2019-03-23T00:57:33.004Z,51.40
2019-03-23T01:00:09.482Z,40.77
2019-03-23T01:02:43.010Z,51.40
2019-03-23T01:05:16.869Z,48.00
2019-03-23T01:07:50.379Z,47.53
2019-03-23T01:12:56.849Z,47.83
2019-03-23T01:15:30.416Z,46.27
2019-03-23T01:18:04.051Z,49.77
2019-03-23T01:20:37.685Z,49.77
2019-03-23T01:23:11.287Z,49.37
2019-03-23T01:25:44.819Z,50.23
2019-03-23T01:28:18.368Z,52.73
2019-03-23T01:30:51.878Z,49.40
2019-03-23T01:33:25.501Z,48.60
2019-03-23T01:35:59.185Z,47.83
2019-03-23T01:38:32.766Z,49.73
2019-03-23T01:41:06.385Z,48.93
2019-03-23T01:43:39.955Z,48.57
2019-03-23T01:46:13.480Z,48.53
2019-03-23T01:48:47.060Z,46.23
2019-03-23T01:51:20.660Z,47.87
2019-03-23T01:53:54.266Z,49.20
2019-03-23T01:56:27.838Z,51.50
2019-03-23T01:59:01.364Z,46.17
2019-03-23T02:01:34.954Z,48.20
2019-03-23T02:04:10.493Z,49.87
2019-03-23T02:06:44.070Z,50.30
2019-03-23T02:09:17.621Z,51.00
2019-03-23T02:11:51.153Z,49.97
2019-03-23T02:14:24.729Z,47.10
2019-03-23T02:16:59.805Z,49.73
2019-03-23T02:19:33.452Z,50.17
2019-03-23T02:22:07.179Z,48.37
2019-03-23T02:24:40.747Z,46.87
2019-03-23T02:27:14.289Z,46.23
2019-03-23T02:29:47.821Z,45.60
2019-03-23T02:32:21.402Z,47.27
2019-03-23T02:34:55.035Z,50.20
2019-03-23T02:37:28.646Z,47.07
2019-03-23T02:40:02.155Z,44.20
2019-03-23T02:42:36.032Z,47.20
2019-03-23T02:45:11.504Z,46.70
2019-03-23T02:47:45.126Z,47.00
2019-03-23T02:50:18.703Z,48.07
2019-03-23T02:52:52.300Z,44.47
2019-03-23T02:55:25.897Z,45.80
2019-03-23T03:00:32.286Z,49.27
2019-03-23T03:03:05.874Z,47.07
2019-03-23T03:05:39.466Z,48.17
2019-03-23T03:08:13.039Z,46.67
2019-03-23T03:10:46.656Z,49.00
2019-03-23T03:13:20.218Z,46.10
2019-03-23T03:15:53.827Z,46.97
2019-03-23T03:18:27.461Z,47.53
2019-03-23T03:21:01.129Z,45.83
2019-03-23T03:23:34.767Z,48.13
2019-03-23T03:26:08.330Z,44.70
2019-03-23T03:28:42.042Z,40.93
2019-03-23T03:31:15.630Z,42.63
2019-03-23T03:33:49.210Z,44.30
2019-03-23T03:36:22.838Z,46.23
2019-03-23T03:38:56.421Z,47.93
2019-03-23T03:41:30.157Z,47.40
2019-03-23T03:44:03.902Z,49.23
2019-03-23T03:46:37.519Z,46.67
2019-03-23T03:49:12.836Z,47.13
2019-03-23T03:51:46.405Z,51.43
2019-03-23T03:54:20.174Z,50.10
2019-03-23T03:56:53.780Z,48.97
2019-03-23T03:59:27.272Z,48.67
2019-03-23T04:02:00.879Z,46.73
2019-03-23T04:04:34.483Z,45.23
2019-03-23T04:07:09.708Z,43.03
2019-03-23T04:09:43.302Z,43.00
2019-03-23T04:12:16.876Z,42.43
2019-03-23T04:14:50.681Z,42.97
2019-03-23T04:17:24.537Z,42.73
2019-03-23T04:19:58.142Z,43.70
2019-03-23T04:22:31.646Z,44.33
2019-03-23T04:25:09.212Z,41.43
2019-03-23T04:27:42.845Z,39.90
2019-03-23T04:30:16.733Z,42.57
2019-03-23T04:32:50.231Z,44.73
2019-03-23T04:35:23.826Z,41.63
2019-03-23T04:37:57.560Z,43.13
2019-03-23T04:40:31.110Z,45.10
2019-03-23T04:43:04.753Z,42.17
2019-03-23T04:45:38.545Z,42.77
2019-03-23T04:48:12.049Z,44.37
2019-03-23T04:50:45.671Z,45.70
2019-03-23T04:53:19.168Z,41.80
2019-03-23T04:55:52.770Z,42.03
2019-03-23T04:58:26.295Z,40.47
2019-03-23T05:00:59.993Z,46.67
2019-03-23T05:03:33.490Z,44.63
2019-03-23T05:06:07.090Z,42.57
2019-03-23T05:08:40.688Z,47.40
2019-03-23T05:11:14.284Z,46.47
2019-03-23T05:13:47.793Z,47.10
2019-03-23T05:16:21.431Z,46.40
2019-03-23T05:18:55.003Z,49.90
2019-03-23T05:21:28.634Z,50.23
2019-03-23T05:24:02.279Z,57.30
2019-03-23T05:26:35.847Z,59.13
2019-03-23T05:29:09.742Z,64.97
2019-03-23T05:31:43.388Z,63.60
2019-03-23T05:34:16.970Z,64.07
2019-03-23T05:36:50.557Z,63.43
2019-03-23T05:39:25.056Z,63.00
2019-03-23T05:41:59.837Z,64.83
2019-03-23T05:44:33.404Z,67.83
2019-03-23T05:47:07.192Z,67.37
2019-03-23T05:49:40.808Z,66.13
2019-03-23T05:52:14.437Z,60.23
2019-03-23T05:54:48.312Z,64.80
2019-03-23T05:57:21.888Z,62.43
2019-03-23T05:59:55.426Z,65.40
2019-03-23T06:02:29.032Z,60.50
2019-03-23T06:05:02.985Z,61.87
2019-03-23T06:07:36.559Z,59.20
2019-03-23T06:10:10.700Z,57.97
2019-03-23T06:12:44.343Z,56.53
2019-03-23T06:15:19.334Z,59.37
2019-03-23T06:17:52.919Z,61.23
2019-03-23T06:20:26.413Z,57.47
2019-03-23T06:23:00.023Z,54.83
2019-03-23T06:25:33.621Z,54.53
2019-03-23T06:28:07.492Z,52.93
2019-03-23T06:30:40.993Z,52.63
2019-03-23T06:33:14.590Z,53.40
2019-03-23T06:35:48.109Z,49.07
2019-03-23T06:38:21.648Z,42.40
2019-03-23T06:40:55.737Z,42.83
2019-03-23T06:43:29.356Z,40.17
2019-03-23T06:46:02.846Z,40.60
2019-03-23T06:48:36.521Z,40.53
2019-03-23T06:51:10.122Z,37.60
2019-03-23T06:53:43.690Z,38.60
2019-03-23T06:56:17.506Z,41.07
2019-03-23T06:58:51.082Z,42.23
2019-03-23T07:01:24.690Z,42.07
2019-03-23T07:03:58.270Z,40.47
2019-03-23T07:06:31.800Z,40.83
2019-03-23T07:09:15.821Z,39.53
2019-03-23T07:11:41.869Z,41.07
2019-03-23T07:14:15.398Z,39.13
2019-03-23T07:16:49.006Z,40.30
2019-03-23T07:19:22.953Z,37.80
2019-03-23T07:21:56.454Z,39.23
2019-03-23T07:24:29.688Z,36.90
2019-03-23T07:27:03.637Z,36.47
2019-03-23T07:29:37.226Z,37.03
2019-03-23T07:32:11.029Z,37.40
2019-03-23T07:34:44.526Z,38.07
2019-03-23T07:37:18.044Z,39.93
2019-03-23T07:39:51.530Z,37.20
2019-03-23T07:42:25.061Z,37.10
2019-03-23T07:44:58.562Z,36.93
2019-03-23T07:47:32.168Z,38.47
2019-03-23T07:50:07.309Z,40.50
2019-03-23T07:52:41.106Z,39.57
2019-03-23T07:55:15.734Z,39.33
2019-03-23T07:57:49.616Z,39.30
2019-03-23T08:00:23.322Z,37.57
2019-03-23T08:02:56.835Z,35.40
2019-03-23T08:05:30.629Z,37.60
2019-03-23T08:08:04.204Z,45.57
2019-03-23T08:10:37.873Z,74.77
2019-03-23T08:13:11.428Z,36.83
2019-03-23T08:15:44.983Z,36.87
2019-03-23T08:18:18.508Z,40.30
2019-03-23T08:20:52.005Z,39.13
2019-03-23T08:23:25.637Z,38.80
2019-03-23T08:26:00.482Z,40.53
2019-03-23T08:28:34.019Z,41.57
2019-03-23T08:31:07.637Z,46.07
2019-03-23T08:33:41.138Z,43.23
2019-03-23T08:36:14.679Z,40.17
2019-03-23T08:38:48.181Z,42.33
2019-03-23T08:41:21.800Z,37.03
2019-03-23T08:43:55.399Z,37.23
2019-03-23T08:46:28.981Z,38.00
2019-03-23T08:49:02.695Z,38.53
2019-03-23T08:51:36.209Z,35.57
2019-03-23T08:54:09.732Z,32.20
2019-03-23T08:56:43.281Z,31.93
2019-03-23T08:59:17.815Z,34.37
2019-03-23T09:01:51.420Z,31.83
2019-03-23T09:04:27.344Z,32.33
2019-03-23T09:07:00.901Z,32.43
2019-03-23T09:09:34.429Z,30.63
2019-03-23T09:12:09.166Z,32.53
2019-03-23T09:14:42.744Z,31.20
2019-03-23T09:17:16.268Z,29.93
2019-03-23T09:19:49.840Z,29.50
2019-03-23T09:22:23.397Z,27.80
2019-03-23T09:24:57.273Z,30.47
2019-03-23T09:27:30.932Z,30.27
2019-03-23T09:30:10.249Z,28.97
2019-03-23T09:32:43.744Z,28.27
2019-03-23T09:35:17.352Z,29.53
2019-03-23T09:37:51.464Z,27.80
2019-03-23T09:40:24.965Z,30.63
2019-03-23T09:42:58.490Z,28.83
2019-03-23T09:45:31.982Z,26.47
2019-03-23T09:48:05.597Z,28.00
2019-03-23T09:50:39.214Z,28.13
2019-03-23T09:53:12.720Z,27.47
2019-03-23T09:55:46.352Z,26.70
2019-03-23T09:58:19.943Z,26.50
2019-03-23T10:00:53.544Z,26.68
2019-03-23T10:03:27.178Z,25.90
2019-03-23T10:06:00.789Z,26.53
2019-03-23T10:08:34.950Z,25.55
2019-03-23T10:11:09.141Z,25.32
2019-03-23T10:13:42.716Z,26.33
2019-03-23T10:16:16.263Z,25.57
2019-03-23T10:18:50.465Z,26.12
2019-03-23T10:21:24.628Z,25.23
2019-03-23T10:24:00.474Z,25.88
2019-03-23T10:26:34.040Z,24.93
2019-03-23T10:29:08.200Z,26.62
2019-03-23T10:31:42.310Z,26.95
2019-03-23T10:34:16.550Z,28.25
2019-03-23T10:36:50.819Z,26.12
2019-03-23T10:39:24.395Z,28.33
2019-03-23T10:41:58.022Z,27.20
2019-03-23T10:44:32.461Z,27.58
2019-03-23T10:47:05.988Z,25.70
2019-03-23T10:49:40.747Z,26.52
2019-03-23T10:52:14.864Z,28.70
2019-03-23T10:54:49.056Z,30.00
2019-03-23T10:57:22.633Z,25.97
2019-03-23T10:59:56.805Z,27.42
2019-03-23T11:02:30.357Z,28.07
2019-03-23T11:05:05.908Z,29.27
2019-03-23T11:07:40.031Z,27.27
2019-03-23T11:10:14.612Z,25.97
2019-03-23T11:12:50.187Z,27.60
2019-03-23T11:15:24.329Z,26.30
2019-03-23T11:17:57.898Z,29.00
2019-03-23T11:20:31.464Z,34.07
2019-03-23T11:23:05.030Z,31.50
2019-03-23T11:25:38.653Z,33.87
2019-03-23T11:28:12.234Z,32.63
2019-03-23T11:30:46.092Z,33.17
2019-03-23T11:33:19.693Z,39.03
2019-03-23T11:35:57.779Z,34.13
2019-03-23T11:38:27.744Z,33.57
2019-03-23T11:41:01.292Z,33.50
2019-03-23T11:43:34.866Z,31.23
2019-03-23T11:46:09.193Z,33.23
2019-03-23T11:48:43.911Z,30.67
2019-03-23T11:51:18.089Z,31.55
2019-03-23T11:53:52.261Z,31.02
2019-03-23T11:56:25.876Z,30.33
2019-03-23T11:59:00.155Z,32.55
2019-03-23T12:01:33.840Z,32.28
2019-03-23T12:04:08.123Z,32.03
2019-03-23T12:06:42.307Z,31.17
2019-03-23T12:09:16.472Z,33.13
2019-03-23T12:11:50.005Z,32.80
2019-03-23T12:14:23.552Z,29.75
2019-03-23T12:16:58.952Z,30.08
2019-03-23T12:19:33.109Z,29.30
2019-03-23T12:22:07.367Z,30.97
2019-03-23T12:24:41.637Z,31.70
2019-03-23T12:27:16.011Z,29.57
2019-03-23T12:29:50.180Z,27.85
2019-03-23T12:32:24.359Z,28.50
2019-03-23T12:34:58.616Z,28.35
2019-03-23T12:37:35.933Z,27.93
2019-03-23T12:40:10.582Z,25.80
2019-03-23T12:42:44.783Z,24.82
2019-03-23T12:45:19.020Z,24.80
2019-03-23T12:47:53.282Z,23.20
2019-03-23T12:50:27.471Z,25.97
2019-03-23T12:53:02.815Z,25.88
2019-03-23T12:55:37.911Z,24.55
2019-03-23T12:58:17.067Z,25.43
2019-03-23T13:00:51.223Z,23.20
2019-03-23T13:03:25.439Z,23.87
2019-03-23T13:05:59.527Z,24.32
2019-03-23T13:08:33.738Z,22.17
2019-03-23T13:11:07.888Z,22.70
2019-03-23T13:13:42.270Z,21.90
2019-03-23T13:16:16.363Z,24.77
2019-03-23T13:18:50.542Z,29.85
2019-03-23T13:21:24.643Z,43.90
2019-03-23T13:23:58.826Z,25.70
2019-03-23T13:26:33.014Z,24.87
2019-03-23T13:29:07.177Z,26.97
2019-03-23T13:31:41.351Z,29.52
2019-03-23T13:34:15.761Z,21.48
2019-03-23T13:36:49.921Z,23.92
2019-03-23T13:39:24.126Z,23.65
2019-03-23T13:41:58.289Z,22.15
2019-03-23T13:44:32.398Z,27.70
2019-03-23T13:47:06.480Z,30.37
2019-03-23T13:49:40.666Z,24.10
2019-03-23T13:52:14.749Z,23.40
2019-03-23T13:54:48.871Z,24.70
2019-03-23T13:57:23.040Z,24.12
2019-03-23T13:59:57.173Z,22.20
2019-03-23T14:02:31.549Z,25.52
2019-03-23T14:05:12.258Z,23.40
2019-03-23T14:07:42.038Z,61.73
2019-03-23T14:10:16.193Z,20.37
2019-03-23T14:12:50.337Z,27.02
2019-03-23T14:15:25.934Z,40.67
2019-03-23T14:18:04.824Z,30.10
2019-03-23T14:20:40.515Z,20.95
2019-03-23T14:23:14.707Z,24.15
2019-03-23T14:25:48.874Z,29.65
2019-03-23T14:28:23.057Z,21.77
2019-03-23T14:30:57.214Z,22.82
2019-03-23T14:33:31.410Z,22.27
2019-03-23T14:36:05.489Z,20.30
2019-03-23T14:38:39.626Z,22.02
2019-03-23T14:41:13.714Z,22.22
2019-03-23T14:43:47.910Z,20.68
2019-03-23T14:46:22.337Z,19.20
2019-03-23T14:49:01.907Z,17.87
2019-03-23T14:51:33.022Z,18.05
2019-03-23T14:54:07.475Z,20.02
2019-03-23T14:56:41.666Z,21.17
2019-03-23T14:59:15.857Z,23.18
2019-03-23T15:01:51.158Z,18.87
2019-03-23T15:04:25.285Z,18.60
2019-03-23T15:06:59.439Z,18.73
2019-03-23T15:09:33.541Z,20.37
2019-03-23T15:12:14.669Z,19.60
2019-03-23T15:14:43.501Z,20.17
2019-03-23T15:17:19.243Z,21.68
2019-03-23T15:19:53.434Z,24.35
2019-03-23T15:22:27.546Z,23.70
2019-03-23T15:25:03.581Z,26.15
2019-03-23T15:27:37.681Z,19.95
2019-03-23T15:30:12.481Z,22.07
2019-03-23T15:32:46.785Z,18.57
2019-03-23T15:35:21.057Z,14.45
2019-03-23T15:37:56.269Z,14.68
2019-03-23T15:40:30.364Z,16.85
2019-03-23T15:43:05.348Z,14.27
2019-03-23T15:45:40.973Z,11.30
2019-03-23T15:48:14.605Z,10.87
2019-03-23T15:50:48.258Z,10.27
2019-03-23T15:53:21.784Z,8.17
2019-03-23T15:55:55.281Z,9.30
2019-03-23T15:58:29.465Z,9.58
2019-03-23T16:01:03.077Z,7.80
2019-03-23T16:03:36.761Z,7.10
2019-03-23T16:06:10.846Z,8.90
2019-03-23T16:08:44.453Z,7.73
2019-03-23T16:11:20.910Z,9.37
2019-03-23T16:13:54.481Z,7.03
2019-03-23T16:16:28.028Z,7.77
2019-03-23T16:19:01.633Z,5.90
2019-03-23T16:21:35.120Z,6.23
2019-03-23T16:24:08.665Z,14.37
2019-03-23T16:26:42.366Z,6.30
2019-03-23T16:29:15.961Z,6.80
2019-03-23T16:31:49.879Z,11.10
2019-03-23T16:34:23.470Z,5.43
2019-03-23T16:36:58.073Z,5.47
2019-03-23T16:39:32.600Z,5.40
2019-03-23T16:42:06.181Z,5.33
2019-03-23T16:44:41.490Z,5.27
2019-03-23T16:47:14.984Z,5.03
2019-03-23T16:49:48.519Z,6.80
2019-03-23T16:52:22.901Z,12.60
2019-03-23T16:54:56.596Z,12.60
2019-03-23T16:57:30.169Z,4.50
2019-03-23T17:00:09.435Z,4.90
2019-03-23T17:02:43.027Z,3.77
2019-03-23T17:05:16.624Z,4.70
2019-03-23T17:07:50.218Z,4.00
2019-03-23T17:10:23.808Z,3.20
2019-03-23T17:12:57.378Z,13.93
2019-03-23T17:15:30.980Z,8.17
2019-03-23T17:18:05.994Z,14.47
2019-03-23T17:20:39.845Z,10.17
2019-03-23T17:23:13.372Z,4.40
2019-03-23T17:25:46.946Z,5.63
2019-03-23T17:28:20.580Z,28.70
2019-03-23T17:30:55.620Z,23.33
2019-03-23T17:33:29.167Z,30.30
2019-03-23T17:36:02.740Z,4.97
2019-03-23T17:38:36.345Z,5.77
2019-03-23T17:41:10.466Z,3.13
2019-03-23T17:43:44.151Z,2.47
2019-03-23T17:46:17.828Z,3.10
2019-03-23T17:48:51.420Z,3.60
2019-03-23T17:51:25.007Z,3.37
2019-03-23T17:53:59.112Z,2.60
2019-03-23T17:56:32.775Z,2.20
2019-03-23T17:59:06.335Z,1.97
2019-03-23T18:01:39.996Z,1.70
2019-03-23T18:04:14.736Z,2.07
2019-03-23T18:06:48.316Z,2.10
2019-03-23T18:09:22.002Z,2.30
2019-03-23T18:11:55.813Z,2.47
2019-03-23T18:14:29.568Z,2.03
2019-03-23T18:17:03.269Z,2.20
2019-03-23T18:19:36.803Z,1.83
2019-03-23T18:22:10.439Z,1.87
2019-03-23T18:24:44.037Z,1.40
2019-03-23T18:27:17.706Z,1.77
2019-03-23T18:29:51.367Z,2.47
2019-03-23T18:32:25.176Z,2.00
2019-03-23T18:34:59.251Z,3.00
2019-03-23T18:37:32.848Z,3.30
2019-03-23T18:40:08.234Z,2.80
2019-03-23T18:42:41.941Z,2.33
2019-03-23T18:45:15.441Z,1.70
2019-03-23T18:47:51.844Z,2.20
2019-03-23T18:50:25.430Z,2.13
2019-03-23T18:52:59.633Z,2.30
2019-03-23T18:55:33.419Z,1.90
2019-03-23T18:58:06.992Z,1.70
2019-03-23T19:00:44.156Z,1.77
2019-03-23T19:03:17.648Z,1.90
2019-03-23T19:05:51.254Z,2.30
2019-03-23T19:08:24.946Z,1.60
2019-03-23T19:10:58.507Z,1.93
2019-03-23T19:13:37.817Z,2.00
2019-03-23T19:16:09.130Z,2.03
2019-03-23T19:18:42.777Z,2.17
2019-03-23T19:21:16.401Z,2.07
2019-03-23T19:23:49.970Z,1.57
2019-03-23T19:26:23.592Z,2.27
2019-03-23T19:28:57.100Z,2.23
2019-03-23T19:31:30.627Z,2.30
2019-03-23T19:34:04.370Z,1.70
2019-03-23T19:36:37.936Z,2.30
2019-03-23T19:39:11.472Z,1.97
2019-03-23T19:41:45.048Z,2.40
2019-03-23T19:44:18.651Z,2.30
2019-03-23T19:46:52.500Z,2.57
2019-03-23T19:49:26.235Z,2.07
2019-03-23T19:51:59.725Z,1.83
2019-03-23T19:54:33.254Z,2.20
2019-03-23T19:57:06.844Z,2.13
2019-03-23T19:59:40.426Z,2.40
2019-03-23T20:02:14.275Z,2.50
2019-03-23T20:04:47.852Z,2.57
2019-03-23T20:07:21.458Z,2.03
2019-03-23T20:09:54.998Z,2.17
2019-03-23T20:12:29.499Z,2.60
2019-03-23T20:15:07.083Z,2.70
2019-03-23T20:17:41.828Z,2.67
2019-03-23T20:20:17.290Z,2.33
2019-03-23T20:22:51.157Z,1.97
2019-03-23T20:27:57.860Z,2.13
2019-03-23T20:30:31.615Z,2.07
2019-03-23T20:33:05.595Z,2.40
2019-03-23T20:35:39.206Z,1.90
2019-03-23T20:38:12.726Z,2.37
2019-03-23T20:40:46.299Z,3.03
2019-03-23T20:43:19.888Z,2.40
2019-03-23T20:45:53.491Z,2.50
2019-03-23T20:48:27.123Z,2.70
2019-03-23T20:51:00.993Z,2.87
2019-03-23T20:53:34.625Z,2.77
2019-03-23T20:56:09.794Z,2.20
2019-03-23T20:58:45.040Z,3.47
2019-03-23T21:01:18.585Z,2.57
2019-03-23T21:03:52.183Z,2.73
2019-03-23T21:06:25.724Z,2.53
2019-03-23T21:08:59.285Z,2.63
2019-03-23T21:11:32.892Z,2.40
2019-03-23T21:14:06.456Z,2.77
2019-03-23T21:16:40.003Z,2.47
2019-03-23T21:19:13.794Z,2.60
2019-03-23T21:21:47.364Z,2.63
2019-03-23T21:24:20.962Z,2.70
2019-03-23T21:26:54.573Z,3.00
2019-03-23T21:29:28.155Z,2.73
2019-03-23T21:32:01.766Z,2.80
2019-03-23T21:34:35.327Z,2.90
2019-03-23T21:37:09.224Z,3.10
2019-03-23T21:39:42.720Z,2.30
2019-03-23T21:42:16.322Z,3.27
2019-03-23T21:44:49.893Z,2.77
2019-03-23T21:47:23.488Z,2.33
2019-03-23T21:49:57.026Z,2.63
2019-03-23T21:52:30.618Z,2.87
2019-03-23T21:55:04.866Z,3.10
2019-03-23T21:57:38.473Z,2.17
2019-03-23T22:00:12.314Z,2.90
2019-03-23T22:02:46.099Z,3.23
2019-03-23T22:05:19.662Z,2.40
2019-03-23T22:07:53.187Z,3.03
2019-03-23T22:10:26.854Z,2.70
2019-03-23T22:13:02.090Z,3.70
2019-03-23T22:15:36.221Z,2.50
2019-03-23T22:18:10.922Z,2.60
2019-03-23T22:20:44.492Z,2.37
2019-03-23T22:23:18.033Z,2.73
2019-03-23T22:25:51.605Z,2.67
2019-03-23T22:28:25.204Z,2.37
2019-03-23T22:30:58.741Z,2.27
2019-03-23T22:33:32.512Z,2.70
2019-03-23T22:36:06.252Z,2.70
2019-03-23T22:38:39.855Z,3.27
2019-03-23T22:41:13.419Z,2.50
2019-03-23T22:43:46.944Z,2.63
2019-03-23T22:46:20.479Z,2.90
2019-03-23T22:48:54.064Z,2.83
2019-03-23T22:51:27.662Z,3.00
2019-03-23T22:54:01.193Z,2.10
2019-03-23T22:56:35.056Z,2.70
2019-03-23T22:59:08.573Z,2.47
2019-03-23T23:01:42.385Z,3.00
2019-03-23T23:04:15.949Z,2.73
2019-03-23T23:06:49.549Z,2.70
2019-03-23T23:09:24.805Z,2.40
2019-03-23T23:11:59.785Z,3.17
2019-03-23T23:14:33.453Z,2.33
2019-03-23T23:17:08.264Z,2.27
2019-03-23T23:19:43.068Z,2.10
2019-03-23T23:22:16.614Z,3.03
2019-03-23T23:24:50.145Z,2.77
2019-03-23T23:27:23.958Z,2.40
2019-03-23T23:29:57.603Z,3.00
2019-03-23T23:32:31.196Z,2.97
2019-03-23T23:35:09.241Z,2.83
2019-03-23T23:37:42.848Z,3.37
2019-03-23T23:40:17.011Z,3.07
2019-03-23T23:42:50.588Z,2.47
2019-03-23T23:45:24.176Z,3.13
2019-03-23T23:47:57.943Z,3.17
2019-03-23T23:50:31.541Z,3.60
2019-03-23T23:53:05.385Z,3.50
2019-03-23T23:55:39.001Z,3.20
2019-03-23T23:58:12.648Z,2.80
